Terminal Aerodrome Forecast
Issued by NWS

Current Version | Previous Version | Graphics & Text | Print | Product List | Glossary On
Versions: 1 2 3 4 5 6 7 8 9 10 11 12 13 14 15 16 17 18 19 20 21 22 23
311
FTUS41 KRLX 211500 AAA
TAFCKB
TAF AMD
KCKB 211500Z 2115/2212 26007KT 2SM +RA BR BKN006 BKN015 OVC024
     FM211800 26007KT P6SM BKN021
     FM212000 27009KT P6SM BKN045
     FM212300 27010KT P6SM SCT050
     FM221000 VRB03KT P6SM FEW200=

USA.gov is the U.S. government's official web portal to all federal, state and local government web resources and services.